createdAt,value
2022-09-22T00:10:10.852Z,991.5
2022-09-22T00:24:44.064Z,991.4
2022-09-22T00:39:10.101Z,991.5
2022-09-22T00:53:38.496Z,991.4
2022-09-22T01:08:08.732Z,991.4
2022-09-22T01:22:38.717Z,991.2
2022-09-22T01:37:08.678Z,991.2
2022-09-22T01:51:37.813Z,991.1
2022-09-22T02:06:07.403Z,990.9
2022-09-22T02:20:38.418Z,990.9
2022-09-22T02:35:08.214Z,990.8
2022-09-22T02:49:37.175Z,990.7
2022-09-22T03:04:06.503Z,990.7
2022-09-22T03:18:36.031Z,990.6
2022-09-22T03:33:06.279Z,990.4
2022-09-22T03:47:37.081Z,990.5
2022-09-22T04:02:07.223Z,990.5
2022-09-22T04:16:38.359Z,990.3
2022-09-22T04:31:07.733Z,990.4
2022-09-22T04:45:40.349Z,990.4
2022-09-22T05:00:10.006Z,990.3
2022-09-22T05:14:39.080Z,990.4
2022-09-22T05:29:08.772Z,990.4
2022-09-22T05:43:38.889Z,990.3
2022-09-22T05:58:06.816Z,990.5
2022-09-22T06:12:37.647Z,990.5
2022-09-22T06:27:06.194Z,990.5
2022-09-22T06:41:36.997Z,990.5
2022-09-22T06:56:07.739Z,990.4
2022-09-22T07:10:39.237Z,990.5
2022-09-22T07:25:10.897Z,990.4
2022-09-22T07:39:42.993Z,990.4
2022-09-22T07:54:12.367Z,990.4
2022-09-22T08:08:43.830Z,990.3
2022-09-22T08:23:30.970Z,990.3
2022-09-22T08:38:13.695Z,990.2
2022-09-22T08:52:48.247Z,990.3
2022-09-22T09:07:15.716Z,990.3
2022-09-22T09:21:44.321Z,990.3
2022-09-22T09:36:18.137Z,990.3
2022-09-22T09:50:38.186Z,990.2
2022-09-22T10:05:07.780Z,990
2022-09-22T10:19:40.232Z,989.9
2022-09-22T10:34:10.961Z,989.8
2022-09-22T10:48:42.322Z,989.6
2022-09-22T11:03:13.871Z,989.5
2022-09-22T11:17:47.343Z,989.4
2022-09-22T11:32:19.347Z,989.3
2022-09-22T11:46:50.202Z,989.2
2022-09-22T12:01:15.285Z,989.1
2022-09-22T12:15:48.294Z,988.9
2022-09-22T12:30:19.390Z,988.7
2022-09-22T12:44:51.040Z,988.5
2022-09-22T12:59:22.103Z,988.4
2022-09-22T13:13:52.549Z,988.4
2022-09-22T13:28:21.975Z,988.2
2022-09-22T13:42:50.105Z,988.1
2022-09-22T13:57:30.885Z,987.8
2022-09-22T14:11:57.197Z,987.8
2022-09-22T14:26:27.956Z,987.8
2022-09-22T14:41:02.586Z,987.6
2022-09-22T14:55:29.883Z,987.5
2022-09-22T15:10:00.329Z,987.3
2022-09-22T15:24:32.542Z,987.2
2022-09-22T15:39:00.860Z,987.2
2022-09-22T15:53:35.808Z,987.2
2022-09-22T16:08:02.381Z,987.1
2022-09-22T16:22:31.975Z,987.1
2022-09-22T16:37:02.253Z,986.9
2022-09-22T16:51:42.088Z,987
2022-09-22T17:06:04.438Z,987
2022-09-22T17:20:34.890Z,987
2022-09-22T17:35:04.823Z,987
2022-09-22T17:49:36.404Z,987.1
2022-09-22T18:04:03.960Z,987.1
2022-09-22T18:18:32.725Z,987.1
2022-09-22T18:33:00.533Z,987
2022-09-22T18:47:30.126Z,987.1
2022-09-22T19:01:57.582Z,987.2
2022-09-22T19:16:26.771Z,987.2
2022-09-22T19:30:56.837Z,987.1
2022-09-22T19:45:25.564Z,987.1
2022-09-22T19:59:54.566Z,987
2022-09-22T20:14:25.626Z,987
2022-09-22T20:28:54.006Z,987
2022-09-22T20:43:24.593Z,986.9
2022-09-22T20:57:53.922Z,986.9
2022-09-22T21:12:31.713Z,986.8
2022-09-22T21:26:56.392Z,986.7
2022-09-22T21:41:26.460Z,986.7
2022-09-22T21:55:56.841Z,986.6
2022-09-22T22:10:27.184Z,986.4
2022-09-22T22:24:56.638Z,986.3
2022-09-22T22:39:27.927Z,986.3
2022-09-22T22:54:00.734Z,986.3
2022-09-22T23:08:27.888Z,986.2
2022-09-22T23:22:56.634Z,986.2
2022-09-22T23:37:26.930Z,986
2022-09-22T23:51:57.232Z,986
